sensor_id;sensor_type;location;lat;lon;timestamp;pressure;altitude;pressure_sealevel;temperature;humidity
74529;BME280;63009;52.584;5.932;2022-08-25T00:01:43;101912.78;;;20.65;82.67
74529;BME280;63009;52.584;5.932;2022-08-25T00:04:12;101905.00;;;20.62;82.39
74529;BME280;63009;52.584;5.932;2022-08-25T00:06:40;101899.75;;;20.60;82.17
74529;BME280;63009;52.584;5.932;2022-08-25T00:09:06;101894.88;;;20.54;81.85
74529;BME280;63009;52.584;5.932;2022-08-25T00:11:33;101906.47;;;20.55;81.41
74529;BME280;63009;52.584;5.932;2022-08-25T00:14:02;101885.78;;;20.45;81.44
74529;BME280;63009;52.584;5.932;2022-08-25T00:16:29;101902.34;;;20.51;81.11
74529;BME280;63009;52.584;5.932;2022-08-25T00:19:03;101899.81;;;20.49;80.79
74529;BME280;63009;52.584;5.932;2022-08-25T00:21:29;101902.50;;;20.49;80.73
74529;BME280;63009;52.584;5.932;2022-08-25T00:23:56;101906.41;;;20.45;80.45
74529;BME280;63009;52.584;5.932;2022-08-25T00:26:21;101912.38;;;20.49;79.97
74529;BME280;63009;52.584;5.932;2022-08-25T00:28:47;101911.25;;;20.40;80.32
74529;BME280;63009;52.584;5.932;2022-08-25T00:31:17;101913.00;;;20.41;80.15
74529;BME280;63009;52.584;5.932;2022-08-25T00:33:45;101913.00;;;20.41;79.93
74529;BME280;63009;52.584;5.932;2022-08-25T00:36:11;101914.81;;;20.40;79.89
74529;BME280;63009;52.584;5.932;2022-08-25T00:38:41;101908.13;;;20.35;80.17
74529;BME280;63009;52.584;5.932;2022-08-25T00:41:07;101906.69;;;20.31;79.92
74529;BME280;63009;52.584;5.932;2022-08-25T00:43:45;101908.50;;;20.30;79.99
74529;BME280;63009;52.584;5.932;2022-08-25T00:46:14;101912.19;;;20.29;79.84
74529;BME280;63009;52.584;5.932;2022-08-25T00:48:43;101917.91;;;20.25;80.06
74529;BME280;63009;52.584;5.932;2022-08-25T00:51:12;101907.56;;;20.20;79.56
74529;BME280;63009;52.584;5.932;2022-08-25T00:53:40;101908.66;;;20.17;79.12
74529;BME280;63009;52.584;5.932;2022-08-25T00:56:06;101913.91;;;20.19;78.98
74529;BME280;63009;52.584;5.932;2022-08-25T00:58:33;101898.53;;;20.10;79.30
74529;BME280;63009;52.584;5.932;2022-08-25T01:00:59;101909.91;;;20.13;79.19
74529;BME280;63009;52.584;5.932;2022-08-25T01:03:28;101905.38;;;20.14;78.86
74529;BME280;63009;52.584;5.932;2022-08-25T01:05:54;101901.47;;;20.07;78.95
74529;BME280;63009;52.584;5.932;2022-08-25T01:08:23;101902.84;;;20.01;78.94
74529;BME280;63009;52.584;5.932;2022-08-25T01:10:52;101903.06;;;19.98;79.26
74529;BME280;63009;52.584;5.932;2022-08-25T01:13:38;101900.75;;;19.94;79.18
74529;BME280;63009;52.584;5.932;2022-08-25T01:16:04;101904.31;;;19.94;79.16
74529;BME280;63009;52.584;5.932;2022-08-25T01:18:42;101902.97;;;19.89;78.67
74529;BME280;63009;52.584;5.932;2022-08-25T01:21:07;101903.31;;;19.84;78.36
74529;BME280;63009;52.584;5.932;2022-08-25T01:23:33;101896.25;;;19.83;77.24
74529;BME280;63009;52.584;5.932;2022-08-25T01:26:09;101894.56;;;19.82;77.35
74529;BME280;63009;52.584;5.932;2022-08-25T01:28:36;101895.41;;;19.82;77.28
74529;BME280;63009;52.584;5.932;2022-08-25T01:31:02;101900.56;;;19.85;76.57
74529;BME280;63009;52.584;5.932;2022-08-25T01:33:27;101910.31;;;19.86;75.81
74529;BME280;63009;52.584;5.932;2022-08-25T01:35:53;101898.81;;;19.84;75.67
74529;BME280;63009;52.584;5.932;2022-08-25T01:38:19;101897.63;;;19.89;74.90
74529;BME280;63009;52.584;5.932;2022-08-25T01:40:45;101897.88;;;19.85;75.25
74529;BME280;63009;52.584;5.932;2022-08-25T01:45:43;101904.31;;;19.83;74.94
74529;BME280;63009;52.584;5.932;2022-08-25T01:48:10;101896.63;;;19.78;75.02
74529;BME280;63009;52.584;5.932;2022-08-25T01:50:35;101890.28;;;19.79;74.54
74529;BME280;63009;52.584;5.932;2022-08-25T01:53:17;101894.09;;;19.77;74.16
74529;BME280;63009;52.584;5.932;2022-08-25T01:55:43;101891.78;;;19.72;74.32
74529;BME280;63009;52.584;5.932;2022-08-25T01:58:26;101892.38;;;19.76;73.62
74529;BME280;63009;52.584;5.932;2022-08-25T02:00:54;101889.81;;;19.74;73.50
74529;BME280;63009;52.584;5.932;2022-08-25T02:03:22;101896.91;;;19.75;73.45
74529;BME280;63009;52.584;5.932;2022-08-25T02:05:47;101886.63;;;19.69;72.85
74529;BME280;63009;52.584;5.932;2022-08-25T02:08:13;101887.88;;;19.65;72.84
74529;BME280;63009;52.584;5.932;2022-08-25T02:10:39;101889.81;;;19.63;72.67
74529;BME280;63009;52.584;5.932;2022-08-25T02:13:05;101884.00;;;19.58;72.89
74529;BME280;63009;52.584;5.932;2022-08-25T02:15:31;101885.69;;;19.59;72.39
74529;BME280;63009;52.584;5.932;2022-08-25T02:17:56;101880.66;;;19.54;72.82
74529;BME280;63009;52.584;5.932;2022-08-25T02:20:22;101879.19;;;19.50;73.20
74529;BME280;63009;52.584;5.932;2022-08-25T02:22:49;101886.63;;;19.47;72.87
74529;BME280;63009;52.584;5.932;2022-08-25T02:25:15;101879.19;;;19.50;72.67
74529;BME280;63009;52.584;5.932;2022-08-25T02:27:41;101884.81;;;19.47;72.99
74529;BME280;63009;52.584;5.932;2022-08-25T02:30:06;101896.63;;;19.45;73.08
74529;BME280;63009;52.584;5.932;2022-08-25T02:32:32;101894.81;;;19.45;72.60
74529;BME280;63009;52.584;5.932;2022-08-25T02:34:57;101887.47;;;19.47;72.12
74529;BME280;63009;52.584;5.932;2022-08-25T02:37:23;101882.38;;;19.44;71.76
74529;BME280;63009;52.584;5.932;2022-08-25T02:39:48;101872.72;;;19.42;71.74
74529;BME280;63009;52.584;5.932;2022-08-25T02:42:14;101882.50;;;19.43;71.81
74529;BME280;63009;52.584;5.932;2022-08-25T02:44:39;101880.41;;;19.35;71.96
74529;BME280;63009;52.584;5.932;2022-08-25T02:47:05;101891.47;;;19.42;71.61
74529;BME280;63009;52.584;5.932;2022-08-25T02:49:30;101892.47;;;19.41;71.25
74529;BME280;63009;52.584;5.932;2022-08-25T02:51:56;101895.13;;;19.41;71.50
74529;BME280;63009;52.584;5.932;2022-08-25T02:54:22;101886.13;;;19.42;71.60
74529;BME280;63009;52.584;5.932;2022-08-25T02:56:48;101880.28;;;19.37;71.62
74529;BME280;63009;52.584;5.932;2022-08-25T02:59:14;101885.41;;;19.40;71.31
74529;BME280;63009;52.584;5.932;2022-08-25T03:01:41;101880.03;;;19.40;70.99
74529;BME280;63009;52.584;5.932;2022-08-25T03:04:07;101887.09;;;19.41;71.34
74529;BME280;63009;52.584;5.932;2022-08-25T03:06:32;101878.84;;;19.44;71.28
74529;BME280;63009;52.584;5.932;2022-08-25T03:08:57;101866.63;;;19.40;71.27
74529;BME280;63009;52.584;5.932;2022-08-25T03:11:23;101866.75;;;19.38;70.82
74529;BME280;63009;52.584;5.932;2022-08-25T03:13:49;101868.44;;;19.39;70.59
74529;BME280;63009;52.584;5.932;2022-08-25T03:16:15;101849.59;;;19.30;70.78
74529;BME280;63009;52.584;5.932;2022-08-25T03:18:40;101861.63;;;19.35;70.68
74529;BME280;63009;52.584;5.932;2022-08-25T03:21:06;101841.03;;;19.24;71.23
74529;BME280;63009;52.584;5.932;2022-08-25T03:23:31;101858.22;;;19.33;70.75
74529;BME280;63009;52.584;5.932;2022-08-25T03:25:57;101850.56;;;19.28;71.24
74529;BME280;63009;52.584;5.932;2022-08-25T03:28:40;101857.72;;;19.28;70.41
74529;BME280;63009;52.584;5.932;2022-08-25T03:31:07;101862.22;;;19.27;70.07
74529;BME280;63009;52.584;5.932;2022-08-25T03:33:32;101851.63;;;19.26;70.30
74529;BME280;63009;52.584;5.932;2022-08-25T03:35:58;101850.78;;;19.25;70.42
74529;BME280;63009;52.584;5.932;2022-08-25T03:38:24;101851.28;;;19.19;70.31
74529;BME280;63009;52.584;5.932;2022-08-25T03:40:50;101853.22;;;19.17;70.36
74529;BME280;63009;52.584;5.932;2022-08-25T03:43:16;101854.53;;;19.12;70.16
74529;BME280;63009;52.584;5.932;2022-08-25T03:45:42;101856.25;;;19.13;70.62
74529;BME280;63009;52.584;5.932;2022-08-25T03:48:08;101850.41;;;19.08;70.53
74529;BME280;63009;52.584;5.932;2022-08-25T03:50:34;101831.50;;;18.98;70.31
74529;BME280;63009;52.584;5.932;2022-08-25T03:53:00;101838.47;;;19.01;70.42
74529;BME280;63009;52.584;5.932;2022-08-25T03:55:26;101850.13;;;18.99;70.14
74529;BME280;63009;52.584;5.932;2022-08-25T03:57:53;101847.69;;;18.96;70.11
74529;BME280;63009;52.584;5.932;2022-08-25T04:00:21;101848.69;;;18.95;70.32
74529;BME280;63009;52.584;5.932;2022-08-25T04:02:46;101842.72;;;18.92;70.33
74529;BME280;63009;52.584;5.932;2022-08-25T04:05:12;101840.03;;;18.92;69.85
74529;BME280;63009;52.584;5.932;2022-08-25T04:07:38;101833.09;;;18.89;69.56
74529;BME280;63009;52.584;5.932;2022-08-25T04:10:05;101832.84;;;18.92;69.49
74529;BME280;63009;52.584;5.932;2022-08-25T04:12:31;101831.38;;;18.88;69.57
74529;BME280;63009;52.584;5.932;2022-08-25T04:14:57;101827.00;;;18.87;69.71
74529;BME280;63009;52.584;5.932;2022-08-25T04:17:22;101834.19;;;18.87;69.56
74529;BME280;63009;52.584;5.932;2022-08-25T04:19:47;101823.31;;;18.77;69.69
74529;BME280;63009;52.584;5.932;2022-08-25T04:22:12;101824.41;;;18.75;69.94
74529;BME280;63009;52.584;5.932;2022-08-25T04:24:38;101827.09;;;18.75;69.77
74529;BME280;63009;52.584;5.932;2022-08-25T04:27:03;101823.91;;;18.69;70.19
74529;BME280;63009;52.584;5.932;2022-08-25T04:29:29;101818.66;;;18.68;70.35
74529;BME280;63009;52.584;5.932;2022-08-25T04:31:54;101812.38;;;18.56;70.08
74529;BME280;63009;52.584;5.932;2022-08-25T04:34:22;101826.31;;;18.61;70.08
74529;BME280;63009;52.584;5.932;2022-08-25T04:36:47;101824.47;;;18.62;69.91
74529;BME280;63009;52.584;5.932;2022-08-25T04:39:15;101815.72;;;18.60;70.03
74529;BME280;63009;52.584;5.932;2022-08-25T04:41:40;101817.53;;;18.59;69.99
74529;BME280;63009;52.584;5.932;2022-08-25T04:44:05;101826.75;;;18.55;70.14
74529;BME280;63009;52.584;5.932;2022-08-25T04:46:32;101817.25;;;18.51;69.94
74529;BME280;63009;52.584;5.932;2022-08-25T04:48:59;101815.53;;;18.50;69.54
74529;BME280;63009;52.584;5.932;2022-08-25T04:51:28;101819.31;;;18.48;70.09
74529;BME280;63009;52.584;5.932;2022-08-25T04:53:54;101814.69;;;18.50;70.22
74529;BME280;63009;52.584;5.932;2022-08-25T04:56:22;101821.75;;;18.51;69.96
74529;BME280;63009;52.584;5.932;2022-08-25T04:58:52;101814.09;;;18.46;69.88
74529;BME280;63009;52.584;5.932;2022-08-25T05:01:20;101812.47;;;18.44;70.71
74529;BME280;63009;52.584;5.932;2022-08-25T05:03:47;101815.38;;;18.40;70.86
74529;BME280;63009;52.584;5.932;2022-08-25T05:06:16;101816.47;;;18.38;71.34
74529;BME280;63009;52.584;5.932;2022-08-25T05:08:41;101814.53;;;18.40;70.50
74529;BME280;63009;52.584;5.932;2022-08-25T05:11:09;101818.41;;;18.36;71.24
74529;BME280;63009;52.584;5.932;2022-08-25T05:13:37;101813.19;;;18.34;71.01
74529;BME280;63009;52.584;5.932;2022-08-25T05:16:03;101822.81;;;18.37;70.94
74529;BME280;63009;52.584;5.932;2022-08-25T05:18:30;101825.13;;;18.42;70.26
74529;BME280;63009;52.584;5.932;2022-08-25T05:21:00;101829.91;;;18.49;70.08
74529;BME280;63009;52.584;5.932;2022-08-25T05:23:27;101821.63;;;18.52;69.90
74529;BME280;63009;52.584;5.932;2022-08-25T05:25:52;101823.50;;;18.63;70.05
74529;BME280;63009;52.584;5.932;2022-08-25T05:28:19;101821.09;;;18.71;69.53
74529;BME280;63009;52.584;5.932;2022-08-25T05:30:45;101821.28;;;18.92;68.92
74529;BME280;63009;52.584;5.932;2022-08-25T05:33:11;101824.19;;;19.00;68.11
74529;BME280;63009;52.584;5.932;2022-08-25T05:35:37;101828.84;;;19.09;68.66
74529;BME280;63009;52.584;5.932;2022-08-25T05:38:03;101820.34;;;19.15;68.21
74529;BME280;63009;52.584;5.932;2022-08-25T05:40:29;101829.34;;;19.37;67.99
74529;BME280;63009;52.584;5.932;2022-08-25T05:42:55;101822.53;;;19.44;67.00
74529;BME280;63009;52.584;5.932;2022-08-25T05:45:21;101826.91;;;19.45;66.88
74529;BME280;63009;52.584;5.932;2022-08-25T05:47:46;101831.91;;;19.49;66.75
74529;BME280;63009;52.584;5.932;2022-08-25T05:50:12;101830.34;;;19.58;66.91
74529;BME280;63009;52.584;5.932;2022-08-25T05:52:38;101832.00;;;19.70;66.65
74529;BME280;63009;52.584;5.932;2022-08-25T05:55:04;101820.94;;;19.75;66.36
74529;BME280;63009;52.584;5.932;2022-08-25T05:57:29;101832.50;;;19.86;66.04
74529;BME280;63009;52.584;5.932;2022-08-25T05:59:54;101831.56;;;20.08;65.41
74529;BME280;63009;52.584;5.932;2022-08-25T06:02:20;101837.50;;;20.23;65.22
74529;BME280;63009;52.584;5.932;2022-08-25T06:05:04;101833.34;;;20.30;65.28
74529;BME280;63009;52.584;5.932;2022-08-25T06:07:29;101829.38;;;20.45;64.38
74529;BME280;63009;52.584;5.932;2022-08-25T06:09:55;101827.41;;;20.48;63.76
74529;BME280;63009;52.584;5.932;2022-08-25T06:12:20;101824.59;;;20.49;63.78
74529;BME280;63009;52.584;5.932;2022-08-25T06:14:46;101824.47;;;20.51;64.23
74529;BME280;63009;52.584;5.932;2022-08-25T06:17:13;101823.97;;;20.57;64.67
74529;BME280;63009;52.584;5.932;2022-08-25T06:19:38;101826.84;;;20.65;64.28
74529;BME280;63009;52.584;5.932;2022-08-25T06:22:03;101834.91;;;20.86;63.73
74529;BME280;63009;52.584;5.932;2022-08-25T06:24:28;101831.88;;;21.00;63.44
74529;BME280;63009;52.584;5.932;2022-08-25T06:26:54;101818.09;;;21.14;63.47
74529;BME280;63009;52.584;5.932;2022-08-25T06:29:20;101822.72;;;21.33;63.33
74529;BME280;63009;52.584;5.932;2022-08-25T06:31:45;101828.47;;;21.59;61.36
74529;BME280;63009;52.584;5.932;2022-08-25T06:34:11;101829.22;;;21.71;60.68
74529;BME280;63009;52.584;5.932;2022-08-25T06:36:37;101835.47;;;21.81;60.28
74529;BME280;63009;52.584;5.932;2022-08-25T06:39:03;101836.66;;;21.98;60.73
74529;BME280;63009;52.584;5.932;2022-08-25T06:41:28;101835.13;;;22.14;59.98
74529;BME280;63009;52.584;5.932;2022-08-25T06:43:54;101845.94;;;22.24;60.01
74529;BME280;63009;52.584;5.932;2022-08-25T06:46:22;101837.69;;;22.45;59.11
74529;BME280;63009;52.584;5.932;2022-08-25T06:48:48;101842.22;;;22.64;58.88
74529;BME280;63009;52.584;5.932;2022-08-25T06:51:16;101846.78;;;22.83;58.52
74529;BME280;63009;52.584;5.932;2022-08-25T06:53:42;101833.53;;;22.99;58.48
74529;BME280;63009;52.584;5.932;2022-08-25T06:56:08;101831.59;;;23.28;57.41
74529;BME280;63009;52.584;5.932;2022-08-25T06:58:34;101822.69;;;23.46;57.19
74529;BME280;63009;52.584;5.932;2022-08-25T07:01:11;101830.44;;;23.68;57.57
74529;BME280;63009;52.584;5.932;2022-08-25T07:03:37;101818.81;;;23.85;56.10
74529;BME280;63009;52.584;5.932;2022-08-25T07:06:03;101826.03;;;24.12;55.57
74529;BME280;63009;52.584;5.932;2022-08-25T07:08:29;101829.28;;;24.34;55.20
74529;BME280;63009;52.584;5.932;2022-08-25T07:10:55;101820.69;;;24.56;54.77
74529;BME280;63009;52.584;5.932;2022-08-25T07:13:20;101821.28;;;24.68;54.91
74529;BME280;63009;52.584;5.932;2022-08-25T07:15:46;101820.50;;;24.75;54.20
74529;BME280;63009;52.584;5.932;2022-08-25T07:18:11;101825.78;;;25.03;53.50
74529;BME280;63009;52.584;5.932;2022-08-25T07:20:38;101819.41;;;25.12;53.80
74529;BME280;63009;52.584;5.932;2022-08-25T07:23:03;101819.72;;;25.35;53.24
74529;BME280;63009;52.584;5.932;2022-08-25T07:25:29;101799.81;;;25.52;53.58
74529;BME280;63009;52.584;5.932;2022-08-25T07:27:55;101782.22;;;25.56;52.75
74529;BME280;63009;52.584;5.932;2022-08-25T07:30:21;101820.91;;;25.83;52.44
74529;BME280;63009;52.584;5.932;2022-08-25T07:32:47;101809.78;;;26.02;52.14
74529;BME280;63009;52.584;5.932;2022-08-25T07:35:12;101822.84;;;26.23;51.12
74529;BME280;63009;52.584;5.932;2022-08-25T07:37:50;101819.66;;;26.44;50.67
74529;BME280;63009;52.584;5.932;2022-08-25T07:40:24;101828.97;;;26.57;48.72
74529;BME280;63009;52.584;5.932;2022-08-25T07:42:52;101834.91;;;26.77;48.20
74529;BME280;63009;52.584;5.932;2022-08-25T07:45:19;101829.81;;;26.82;47.93
74529;BME280;63009;52.584;5.932;2022-08-25T07:47:45;101822.56;;;26.75;48.11
74529;BME280;63009;52.584;5.932;2022-08-25T07:50:12;101812.03;;;26.80;47.95
74529;BME280;63009;52.584;5.932;2022-08-25T07:52:39;101819.09;;;27.13;47.44
74529;BME280;63009;52.584;5.932;2022-08-25T07:55:05;101824.47;;;27.30;46.27
74529;BME280;63009;52.584;5.932;2022-08-25T07:57:33;101812.25;;;27.26;45.82
74529;BME280;63009;52.584;5.932;2022-08-25T07:59:58;101824.25;;;27.39;47.22
74529;BME280;63009;52.584;5.932;2022-08-25T08:02:24;101818.75;;;27.56;46.80
74529;BME280;63009;52.584;5.932;2022-08-25T08:04:51;101811.13;;;27.90;46.34
74529;BME280;63009;52.584;5.932;2022-08-25T08:07:18;101828.72;;;28.02;44.59
74529;BME280;63009;52.584;5.932;2022-08-25T08:09:44;101827.34;;;28.06;44.13
74529;BME280;63009;52.584;5.932;2022-08-25T08:12:10;101811.50;;;28.10;44.09
74529;BME280;63009;52.584;5.932;2022-08-25T08:14:36;101825.53;;;28.22;43.91
74529;BME280;63009;52.584;5.932;2022-08-25T08:17:06;101821.19;;;28.35;44.50
74529;BME280;63009;52.584;5.932;2022-08-25T08:19:32;101820.59;;;28.48;44.63
74529;BME280;63009;52.584;5.932;2022-08-25T08:21:58;101814.84;;;28.43;43.72
74529;BME280;63009;52.584;5.932;2022-08-25T08:24:24;101818.09;;;28.61;44.29
74529;BME280;63009;52.584;5.932;2022-08-25T08:26:49;101821.97;;;28.82;45.43
74529;BME280;63009;52.584;5.932;2022-08-25T08:29:14;101815.97;;;28.86;42.23
74529;BME280;63009;52.584;5.932;2022-08-25T08:31:40;101813.31;;;29.01;43.37
74529;BME280;63009;52.584;5.932;2022-08-25T08:34:06;101813.59;;;28.83;41.90
74529;BME280;63009;52.584;5.932;2022-08-25T08:36:31;101810.88;;;28.68;42.28
74529;BME280;63009;52.584;5.932;2022-08-25T08:38:57;101803.47;;;28.77;41.78
74529;BME280;63009;52.584;5.932;2022-08-25T08:52:53;101787.28;;;29.79;42.44
74529;BME280;63009;52.584;5.932;2022-08-25T08:55:27;101777.69;;;30.04;42.03
74529;BME280;63009;52.584;5.932;2022-08-25T08:57:56;101774.22;;;30.10;41.13
74529;BME280;63009;52.584;5.932;2022-08-25T09:00:23;101778.81;;;29.89;41.40
74529;BME280;63009;52.584;5.932;2022-08-25T09:03:09;101769.69;;;29.81;41.11
74529;BME280;63009;52.584;5.932;2022-08-25T09:05:48;101767.41;;;30.21;42.13
74529;BME280;63009;52.584;5.932;2022-08-25T09:08:16;101759.56;;;30.39;40.65
74529;BME280;63009;52.584;5.932;2022-08-25T09:22:17;101753.38;;;30.52;38.92
74529;BME280;63009;52.584;5.932;2022-08-25T09:24:56;101751.88;;;30.71;39.96
74529;BME280;63009;52.584;5.932;2022-08-25T09:30:14;101752.06;;;31.04;41.97
74529;BME280;63009;52.584;5.932;2022-08-25T09:32:44;101756.28;;;31.07;39.28
74529;BME280;63009;52.584;5.932;2022-08-25T09:35:19;101745.47;;;30.92;39.77
74529;BME280;63009;52.584;5.932;2022-08-25T09:38:02;101756.88;;;30.67;39.79
74529;BME280;63009;52.584;5.932;2022-08-25T09:40:32;101741.19;;;30.48;39.78
74529;BME280;63009;52.584;5.932;2022-08-25T09:43:00;101752.09;;;30.69;40.07
74529;BME280;63009;52.584;5.932;2022-08-25T09:45:33;101753.47;;;30.93;40.06
74529;BME280;63009;52.584;5.932;2022-08-25T09:48:00;101747.16;;;30.93;39.51
74529;BME280;63009;52.584;5.932;2022-08-25T09:50:30;101737.69;;;31.23;39.34
74529;BME280;63009;52.584;5.932;2022-08-25T09:53:12;101721.94;;;30.84;38.99
74529;BME280;63009;52.584;5.932;2022-08-25T09:55:40;101727.91;;;31.08;39.33
74529;BME280;63009;52.584;5.932;2022-08-25T09:58:19;101716.66;;;31.24;38.25
74529;BME280;63009;52.584;5.932;2022-08-25T10:03:25;101719.84;;;31.27;37.75
74529;BME280;63009;52.584;5.932;2022-08-25T10:06:00;101726.00;;;31.43;38.57
74529;BME280;63009;52.584;5.932;2022-08-25T10:08:32;101715.69;;;31.51;39.24
74529;BME280;63009;52.584;5.932;2022-08-25T10:10:59;101710.47;;;31.63;37.51
74529;BME280;63009;52.584;5.932;2022-08-25T10:13:33;101713.69;;;31.73;37.47
74529;BME280;63009;52.584;5.932;2022-08-25T10:16:12;101713.88;;;31.72;37.19
74529;BME280;63009;52.584;5.932;2022-08-25T10:18:44;101713.22;;;31.63;36.46
74529;BME280;63009;52.584;5.932;2022-08-25T10:21:14;101710.53;;;31.76;35.31
74529;BME280;63009;52.584;5.932;2022-08-25T10:23:46;101708.63;;;31.77;34.64
74529;BME280;63009;52.584;5.932;2022-08-25T10:26:29;101701.72;;;32.07;35.35
74529;BME280;63009;52.584;5.932;2022-08-25T10:29:10;101696.25;;;31.87;34.17
74529;BME280;63009;52.584;5.932;2022-08-25T10:31:58;101697.50;;;31.92;33.36
74529;BME280;63009;52.584;5.932;2022-08-25T10:34:41;101697.53;;;31.98;33.17
74529;BME280;63009;52.584;5.932;2022-08-25T10:40:09;101680.91;;;32.13;32.59
74529;BME280;63009;52.584;5.932;2022-08-25T10:42:52;101687.22;;;32.13;30.74
74529;BME280;63009;52.584;5.932;2022-08-25T10:45:27;101686.56;;;32.18;29.11
74529;BME280;63009;52.584;5.932;2022-08-25T10:48:25;101675.63;;;32.25;30.94
74529;BME280;63009;52.584;5.932;2022-08-25T10:56:33;101663.63;;;32.19;30.04
74529;BME280;63009;52.584;5.932;2022-08-25T10:59:25;101666.81;;;32.29;30.74
74529;BME280;63009;52.584;5.932;2022-08-25T11:02:18;101654.59;;;32.25;30.26
74529;BME280;63009;52.584;5.932;2022-08-25T11:04:52;101636.88;;;32.47;30.12
74529;BME280;63009;52.584;5.932;2022-08-25T11:07:34;101648.41;;;32.69;30.51
74529;BME280;63009;52.584;5.932;2022-08-25T11:10:09;101644.47;;;32.52;28.60
74529;BME280;63009;52.584;5.932;2022-08-25T11:12:40;101643.34;;;32.66;28.93
74529;BME280;63009;52.584;5.932;2022-08-25T11:15:20;101635.41;;;32.45;28.86
74529;BME280;63009;52.584;5.932;2022-08-25T11:17:52;101635.16;;;32.66;29.27
74529;BME280;63009;52.584;5.932;2022-08-25T11:20:23;101636.22;;;32.59;28.45
74529;BME280;63009;52.584;5.932;2022-08-25T11:23:01;101631.53;;;32.72;28.76
74529;BME280;63009;52.584;5.932;2022-08-25T11:25:34;101631.56;;;32.66;27.81
74529;BME280;63009;52.584;5.932;2022-08-25T11:28:25;101624.56;;;32.76;27.71
74529;BME280;63009;52.584;5.932;2022-08-25T11:30:57;101631.25;;;32.94;26.94
74529;BME280;63009;52.584;5.932;2022-08-25T11:33:24;101626.97;;;33.04;27.28
74529;BME280;63009;52.584;5.932;2022-08-25T11:36:17;101624.28;;;32.98;26.65
74529;BME280;63009;52.584;5.932;2022-08-25T11:38:53;101626.75;;;33.06;27.04
74529;BME280;63009;52.584;5.932;2022-08-25T11:44:31;101626.25;;;33.22;26.08
74529;BME280;63009;52.584;5.932;2022-08-25T11:50:24;101619.59;;;33.05;26.64
74529;BME280;63009;52.584;5.932;2022-08-25T11:52:52;101612.66;;;33.02;27.18
74529;BME280;63009;52.584;5.932;2022-08-25T11:55:28;101611.81;;;33.02;27.13
74529;BME280;63009;52.584;5.932;2022-08-25T12:01:03;101605.19;;;32.85;25.54
74529;BME280;63009;52.584;5.932;2022-08-25T12:09:16;101594.56;;;33.01;27.47
74529;BME280;63009;52.584;5.932;2022-08-25T12:11:52;101584.25;;;32.97;26.85
74529;BME280;63009;52.584;5.932;2022-08-25T12:27:09;101593.25;;;33.42;26.44
74529;BME280;63009;52.584;5.932;2022-08-25T12:29:43;101592.66;;;33.40;25.82
74529;BME280;63009;52.584;5.932;2022-08-25T12:32:34;101591.09;;;33.51;25.26
74529;BME280;63009;52.584;5.932;2022-08-25T12:35:09;101585.41;;;33.14;25.41
74529;BME280;63009;52.584;5.932;2022-08-25T12:38:11;101585.09;;;32.97;27.12
74529;BME280;63009;52.584;5.932;2022-08-25T12:43:20;101588.69;;;32.91;27.20
74529;BME280;63009;52.584;5.932;2022-08-25T12:45:49;101577.44;;;32.68;27.84
74529;BME280;63009;52.584;5.932;2022-08-25T12:51:04;101573.09;;;32.92;27.40
74529;BME280;63009;52.584;5.932;2022-08-25T12:53:36;101575.97;;;33.10;27.64
74529;BME280;63009;52.584;5.932;2022-08-25T12:58:47;101568.66;;;33.29;28.67
74529;BME280;63009;52.584;5.932;2022-08-25T13:01:23;101561.66;;;33.64;27.42
74529;BME280;63009;52.584;5.932;2022-08-25T13:07:04;101557.56;;;33.49;27.46
74529;BME280;63009;52.584;5.932;2022-08-25T13:15:22;101561.38;;;33.48;26.91
74529;BME280;63009;52.584;5.932;2022-08-25T13:17:49;101552.59;;;33.32;25.28
74529;BME280;63009;52.584;5.932;2022-08-25T13:20:17;101555.88;;;33.23;27.14
74529;BME280;63009;52.584;5.932;2022-08-25T13:22:46;101550.09;;;33.38;27.00
74529;BME280;63009;52.584;5.932;2022-08-25T13:25:18;101548.78;;;33.40;28.89
74529;BME280;63009;52.584;5.932;2022-08-25T13:27:50;101535.69;;;33.42;26.51
74529;BME280;63009;52.584;5.932;2022-08-25T13:30:22;101544.66;;;33.56;27.20
74529;BME280;63009;52.584;5.932;2022-08-25T13:32:48;101543.59;;;33.57;27.11
74529;BME280;63009;52.584;5.932;2022-08-25T13:35:28;101537.38;;;33.43;27.42
74529;BME280;63009;52.584;5.932;2022-08-25T13:38:11;101537.75;;;33.47;28.40
74529;BME280;63009;52.584;5.932;2022-08-25T13:40:37;101529.53;;;33.47;27.13
74529;BME280;63009;52.584;5.932;2022-08-25T13:43:08;101531.56;;;33.58;27.51
74529;BME280;63009;52.584;5.932;2022-08-25T13:45:38;101531.66;;;33.45;27.35
74529;BME280;63009;52.584;5.932;2022-08-25T13:48:04;101540.13;;;33.43;27.86
74529;BME280;63009;52.584;5.932;2022-08-25T13:50:33;101535.03;;;33.47;27.04
74529;BME280;63009;52.584;5.932;2022-08-25T13:53:31;101531.88;;;33.68;26.85
74529;BME280;63009;52.584;5.932;2022-08-25T13:58:20;101532.72;;;33.93;26.10
74529;BME280;63009;52.584;5.932;2022-08-25T14:00:58;101529.06;;;34.00;26.57
74529;BME280;63009;52.584;5.932;2022-08-25T14:03:45;101534.03;;;34.09;28.24
74529;BME280;63009;52.584;5.932;2022-08-25T14:11:31;101523.28;;;33.64;27.50
74529;BME280;63009;52.584;5.932;2022-08-25T14:14:05;101528.59;;;33.34;27.12
74529;BME280;63009;52.584;5.932;2022-08-25T14:16:37;101505.28;;;33.50;26.52
74529;BME280;63009;52.584;5.932;2022-08-25T14:19:03;101515.91;;;33.40;26.85
74529;BME280;63009;52.584;5.932;2022-08-25T14:21:30;101502.84;;;33.35;26.95
74529;BME280;63009;52.584;5.932;2022-08-25T14:23:57;101507.50;;;33.35;27.75
74529;BME280;63009;52.584;5.932;2022-08-25T14:26:24;101509.13;;;33.43;28.77
74529;BME280;63009;52.584;5.932;2022-08-25T14:28:50;101504.97;;;33.33;25.81
74529;BME280;63009;52.584;5.932;2022-08-25T14:33:55;101497.94;;;33.44;27.27
74529;BME280;63009;52.584;5.932;2022-08-25T14:36:22;101498.66;;;33.58;27.46